Time;durP1;ratioP1;P1;durP2;ratioP2;P2;SDS_P1;SDS_P2;PMS_P1;PMS_P2;Temp;Humidity;BMP_temperature;BMP_pressure;BME280_temperature;BME280_humidity;BME280_pressure;Samples;Min_cycle;Max_cycle;Signal;HPM_P1;HPM_P2
2024/03/25 00:01:25;;;;;;;0.20;0.20;;;;;;;7.62;67.80;100903.25;5078535;28;20058;-79
2024/03/25 00:03:52;;;;;;;0.40;0.40;;;;;;;7.58;67.63;100904.16;5073797;28;20028;-80
2024/03/25 00:06:18;;;;;;;0.10;0.10;;;;;;;7.51;67.76;100905.94;5083014;28;20060;-79
2024/03/25 00:08:44;;;;;;;0.10;0.10;;;;;;;7.46;67.25;100907.75;5082236;28;20502;-79
2024/03/25 00:11:10;;;;;;;0.10;0.10;;;;;;;7.38;67.36;100913.06;5077514;28;20055;-79
2024/03/25 00:13:36;;;;;;;0.10;0.10;;;;;;;7.35;67.69;100913.09;5080057;28;20065;-79
2024/03/25 00:16:04;;;;;;;0.85;0.85;;;;;;;7.28;67.86;100904.34;5076757;28;20052;-79
2024/03/25 00:18:31;;;;;;;0.10;0.10;;;;;;;7.15;68.06;100897.38;5075106;28;20112;-78
2024/03/25 00:20:57;;;;;;;0.10;0.10;;;;;;;7.11;68.58;100888.59;5082553;28;20092;-77
2024/03/25 00:23:24;;;;;;;0.20;0.20;;;;;;;7.06;68.40;100887.75;5083946;28;20056;-79
2024/03/25 00:25:50;;;;;;;0.13;0.13;;;;;;;7.01;68.79;100893.94;5076476;28;20097;-77
2024/03/25 00:28:16;;;;;;;0.10;0.10;;;;;;;6.96;68.36;100891.31;5080176;28;20039;-79
2024/03/25 00:30:43;;;;;;;0.10;0.10;;;;;;;6.92;68.88;100884.31;5075225;28;20483;-79
2024/03/25 00:33:09;;;;;;;0.10;0.10;;;;;;;6.92;68.92;100889.59;5073893;28;20086;-79
2024/03/25 00:35:36;;;;;;;0.10;0.10;;;;;;;6.89;68.69;100894.84;5075918;28;20151;-79
2024/03/25 00:38:02;;;;;;;0.20;0.20;;;;;;;6.85;69.00;100888.72;5079943;28;20071;-79
2024/03/25 00:40:28;;;;;;;0.10;0.10;;;;;;;6.83;69.04;100889.59;5081041;28;20033;-78
2024/03/25 00:42:54;;;;;;;0.10;0.10;;;;;;;6.79;68.83;100899.28;5077354;28;20032;-79
2024/03/25 00:45:20;;;;;;;0.10;0.10;;;;;;;6.76;69.10;100894.91;5078915;28;20102;-79
2024/03/25 00:47:48;;;;;;;0.10;0.10;;;;;;;6.72;69.57;100898.44;5077016;28;20129;-79
2024/03/25 00:50:14;;;;;;;0.10;0.10;;;;;;;6.73;69.30;100901.94;5078425;28;20416;-79
2024/03/25 00:52:41;;;;;;;0.20;0.20;;;;;;;6.68;69.82;100898.44;5078114;28;20523;-79
2024/03/25 00:55:08;;;;;;;0.10;0.10;;;;;;;6.70;69.84;100905.44;5078512;28;20028;-76
2024/03/25 00:57:34;;;;;;;0.10;0.10;;;;;;;6.69;69.35;100913.34;5078021;28;20384;-80
2024/03/25 01:00:00;;;;;;;0.10;0.10;;;;;;;6.67;69.93;100904.56;5078573;28;20460;-79
2024/03/25 01:02:27;;;;;;;0.10;0.10;;;;;;;6.67;69.93;100900.22;5077281;28;20071;-79
2024/03/25 01:04:54;;;;;;;0.10;0.10;;;;;;;6.67;70.03;100913.38;5078665;28;20017;-80
2024/03/25 01:07:21;;;;;;;0.10;0.10;;;;;;;6.63;69.74;100909.88;5079685;28;20059;-79
2024/03/25 01:09:47;;;;;;;0.10;0.10;;;;;;;6.63;70.09;100909.88;5078041;28;20042;-79
2024/03/25 01:12:13;;;;;;;0.10;0.10;;;;;;;6.62;70.18;100905.47;5078314;28;20024;-78
2024/03/25 01:14:39;;;;;;;0.10;0.10;;;;;;;6.62;69.86;100907.25;5079909;28;20048;-79
2024/03/25 01:17:05;;;;;;;0.10;0.10;;;;;;;6.60;69.90;100909.00;5080727;28;20059;-79
2024/03/25 01:19:33;;;;;;;0.10;0.10;;;;;;;6.56;69.97;100917.78;5080642;28;20033;-80
2024/03/25 01:21:59;;;;;;;0.10;0.10;;;;;;;6.53;69.79;100917.78;5080889;28;20511;-80
2024/03/25 01:24:25;;;;;;;0.10;0.10;;;;;;;6.49;69.99;100911.66;5082024;28;20024;-78
2024/03/25 01:26:52;;;;;;;0.30;0.30;;;;;;;6.44;70.26;100923.94;5081366;28;20034;-80
2024/03/25 01:29:18;;;;;;;0.10;0.10;;;;;;;6.45;70.46;100916.03;5079027;28;20328;-79
2024/03/25 01:31:45;;;;;;;0.10;0.10;;;;;;;6.46;70.03;100917.78;5085818;28;20445;-79
2024/03/25 01:34:11;;;;;;;0.82;0.82;;;;;;;6.48;70.11;100920.44;5084700;28;20399;-80
2024/03/25 01:36:37;;;;;;;0.10;0.10;;;;;;;6.50;69.85;100916.03;5094244;28;20546;-80
2024/03/25 01:39:05;;;;;;;0.10;0.10;;;;;;;6.53;70.04;100923.03;5082334;28;20034;-80
2024/03/25 01:41:31;;;;;;;0.10;0.10;;;;;;;6.60;70.62;100915.16;5094920;28;20046;-80
2024/03/25 01:43:57;;;;;;;0.10;0.10;;;;;;;6.66;70.41;100916.88;5092658;28;20494;-80
2024/03/25 01:46:24;;;;;;;0.10;0.10;;;;;;;6.73;70.49;100916.00;5089006;28;20075;-80
2024/03/25 01:48:53;;;;;;;0.10;0.10;;;;;;;6.79;70.40;100921.25;5088209;28;20035;-79
2024/03/25 01:51:22;;;;;;;0.10;0.10;;;;;;;6.81;70.82;100915.97;5084150;28;20024;-77
2024/03/25 01:53:49;;;;;;;0.10;0.10;;;;;;;6.85;70.75;100914.19;5084987;28;20435;-79
2024/03/25 01:56:17;;;;;;;0.10;0.10;;;;;;;6.90;70.67;100909.78;5091760;28;20036;-79
2024/03/25 01:58:43;;;;;;;0.10;0.10;;;;;;;6.89;70.19;100913.28;5085420;28;20024;-79
2024/03/25 02:01:13;;;;;;;0.08;0.08;;;;;;;6.86;70.20;100918.59;5095185;28;20009;-77
2024/03/25 02:03:41;;;;;;;0.10;0.10;;;;;;;6.84;70.48;100912.44;5082984;28;21490;-79
2024/03/25 02:06:12;;;;;;;0.10;0.10;;;;;;;6.84;70.26;100912.44;5083910;28;20028;-79
2024/03/25 02:08:41;;;;;;;0.10;0.10;;;;;;;6.80;70.25;100911.56;5089565;28;20047;-79
2024/03/25 02:11:07;;;;;;;0.10;0.10;;;;;;;6.76;70.03;100910.69;5091611;28;20453;-78
2024/03/25 02:13:35;;;;;;;0.20;0.20;;;;;;;6.74;69.89;100911.59;5088526;28;20028;-78
2024/03/25 02:16:02;;;;;;;0.10;0.10;;;;;;;6.75;69.82;100908.97;5089266;28;20024;-76
2024/03/25 02:18:30;;;;;;;0.10;0.10;;;;;;;6.73;69.84;100916.00;5084062;28;20039;-77
2024/03/25 02:20:57;;;;;;;0.15;0.15;;;;;;;6.71;69.89;100916.88;5088462;28;20025;-79
2024/03/25 02:23:24;;;;;;;0.10;0.10;;;;;;;6.70;70.37;100909.84;5094340;28;20404;-78
2024/03/25 02:25:51;;;;;;;0.10;0.10;;;;;;;6.71;70.01;100909.84;5093868;28;20560;-78
2024/03/25 02:28:17;;;;;;;0.10;0.10;;;;;;;6.70;69.98;100904.59;5079371;28;20447;-77
2024/03/25 02:30:44;;;;;;;0.10;0.10;;;;;;;6.69;69.84;100897.56;5084988;28;20035;-78
2024/03/25 02:33:10;;;;;;;0.10;0.10;;;;;;;6.66;70.22;100893.19;5083974;28;20426;-78
2024/03/25 02:35:38;;;;;;;0.40;0.40;;;;;;;6.66;70.42;100887.91;5086856;28;20016;-78
2024/03/25 02:38:06;;;;;;;0.10;0.10;;;;;;;6.66;70.47;100885.28;5089663;28;20644;-78
2024/03/25 02:40:32;;;;;;;0.10;0.10;;;;;;;6.63;69.98;100887.94;5075522;28;20028;-77
2024/03/25 02:42:59;;;;;;;0.20;0.20;;;;;;;6.60;70.37;100880.03;5082697;28;20101;-78
2024/03/25 02:45:25;;;;;;;0.10;0.10;;;;;;;6.55;69.94;100887.94;5086301;28;20120;-78
2024/03/25 02:47:52;;;;;;;0.20;0.20;;;;;;;6.53;69.90;100883.56;5084583;28;20027;-78
2024/03/25 02:50:18;;;;;;;0.10;0.10;;;;;;;6.50;70.11;100879.19;5079023;28;20495;-75
2024/03/25 02:52:44;;;;;;;0.10;0.10;;;;;;;6.48;70.26;100868.66;5093120;28;20047;-78
2024/03/25 02:55:10;;;;;;;0.10;0.10;;;;;;;6.47;70.01;100877.44;5080216;28;20039;-79
2024/03/25 02:57:37;;;;;;;0.10;0.10;;;;;;;6.42;70.42;100871.31;5088085;28;20040;-77
2024/03/25 03:00:04;;;;;;;0.10;0.10;;;;;;;6.40;70.03;100865.16;5082410;28;20043;-80
2024/03/25 03:02:30;;;;;;;0.10;0.10;;;;;;;6.37;70.20;100870.44;5075655;28;20029;-80
2024/03/25 03:04:56;;;;;;;0.10;0.10;;;;;;;6.32;69.76;100865.19;5091671;28;20093;-79
2024/03/25 03:07:23;;;;;;;0.10;0.10;;;;;;;6.26;70.07;100859.94;5078524;28;20038;-79
2024/03/25 03:09:49;;;;;;;0.17;0.17;;;;;;;6.23;70.30;100872.22;5075929;28;20584;-79
2024/03/25 03:12:15;;;;;;;0.10;0.10;;;;;;;6.18;70.01;100858.19;5093968;28;20036;-79
2024/03/25 03:14:41;;;;;;;0.10;0.10;;;;;;;6.15;70.04;100854.69;5086537;28;20024;-79
2024/03/25 03:17:08;;;;;;;0.10;0.10;;;;;;;6.08;70.20;100850.34;5078336;28;20175;-78
2024/03/25 03:19:34;;;;;;;0.10;0.10;;;;;;;6.05;70.12;100858.22;5081323;28;20024;-79
2024/03/25 03:22:00;;;;;;;0.10;0.10;;;;;;;6.02;70.02;100858.22;5077154;28;20044;-80
2024/03/25 03:24:26;;;;;;;0.10;0.10;;;;;;;6.00;70.31;100862.59;5087118;28;20028;-78
2024/03/25 03:26:52;;;;;;;0.10;0.10;;;;;;;5.97;70.38;100865.22;5103524;28;20032;-80
2024/03/25 03:29:19;;;;;;;0.20;0.20;;;;;;;5.93;70.45;100864.34;5092995;28;20036;-78
2024/03/25 03:31:45;;;;;;;0.10;0.10;;;;;;;5.95;70.61;100861.72;5096830;28;20044;-77
2024/03/25 03:34:11;;;;;;;0.17;0.17;;;;;;;5.95;70.52;100861.72;5098912;28;20028;-78
2024/03/25 03:36:37;;;;;;;0.20;0.20;;;;;;;5.95;70.55;100862.56;5101789;28;20036;-79
2024/03/25 03:39:03;;;;;;;0.75;0.75;;;;;;;5.95;70.83;100866.97;5101529;28;20024;-80
2024/03/25 03:41:30;;;;;;;0.13;0.13;;;;;;;5.96;71.07;100852.94;5107839;28;20036;-77
2024/03/25 03:43:56;;;;;;;0.10;0.10;;;;;;;5.99;70.83;100858.22;5110266;28;20036;-78
2024/03/25 03:46:22;;;;;;;0.10;0.10;;;;;;;5.98;70.68;100856.44;5103037;28;20043;-79
2024/03/25 03:48:48;;;;;;;0.10;0.10;;;;;;;5.98;70.92;100848.53;5092860;28;20028;-79
2024/03/25 03:51:14;;;;;;;0.10;0.10;;;;;;;5.98;70.82;100851.16;5093373;28;20035;-78
2024/03/25 03:53:41;;;;;;;0.10;0.10;;;;;;;5.97;71.00;100847.69;5098742;28;20048;-80
2024/03/25 03:56:07;;;;;;;0.13;0.13;;;;;;;5.97;71.17;100849.44;5093590;28;20021;-79
2024/03/25 03:58:34;;;;;;;0.10;0.10;;;;;;;5.97;71.08;100849.44;5082785;28;20036;-79
2024/03/25 04:01:01;;;;;;;0.20;0.20;;;;;;;5.96;71.14;100852.94;5091267;28;20064;-78
2024/03/25 04:03:27;;;;;;;0.20;0.20;;;;;;;5.94;71.50;100854.69;5095012;28;20024;-80
2024/03/25 04:05:53;;;;;;;0.20;0.20;;;;;;;5.99;71.03;100853.84;5082513;28;20033;-79
2024/03/25 04:08:19;;;;;;;0.10;0.10;;;;;;;5.98;71.42;100845.91;5091772;28;20060;-80
2024/03/25 04:10:46;;;;;;;0.20;0.20;;;;;;;5.99;71.45;100850.34;5088565;28;20043;-79
2024/03/25 04:13:12;;;;;;;0.10;0.10;;;;;;;6.00;71.59;100854.72;5085681;28;20099;-79
2024/03/25 04:15:40;;;;;;;0.35;0.35;;;;;;;6.02;71.13;100846.81;5084746;28;20044;-77
2024/03/25 04:18:07;;;;;;;0.10;0.10;;;;;;;6.02;71.41;100850.34;5086350;28;20080;-79
2024/03/25 04:20:41;;;;;;;0.10;0.10;;;;;;;6.07;71.30;100848.56;5080992;28;20029;-78
2024/03/25 04:23:08;;;;;;;0.15;0.15;;;;;;;6.03;71.15;100844.22;5092956;28;20020;-77
2024/03/25 04:25:37;;;;;;;0.10;0.10;;;;;;;6.00;71.24;100854.72;5081929;28;20028;-78
2024/03/25 04:28:05;;;;;;;0.73;0.73;;;;;;;5.97;71.24;100852.06;5085809;28;20124;-78
2024/03/25 04:30:33;;;;;;;0.10;0.10;;;;;;;5.93;71.35;100851.19;5075264;28;20403;-78
2024/03/25 04:32:59;;;;;;;0.20;0.20;;;;;;;5.90;71.14;100847.69;5087006;28;20032;-78
2024/03/25 04:35:25;;;;;;;0.10;0.10;;;;;;;5.85;71.13;100847.69;5085579;28;20392;-78
2024/03/25 04:37:51;;;;;;;0.13;0.13;;;;;;;5.80;71.00;100850.31;5090533;28;20044;-79
2024/03/25 04:40:18;;;;;;;0.20;0.20;;;;;;;5.77;71.18;100849.44;5092013;28;20028;-77
2024/03/25 04:42:45;;;;;;;0.20;0.20;;;;;;;5.74;71.18;100838.94;5092400;28;20024;-79
2024/03/25 04:45:13;;;;;;;0.10;0.10;;;;;;;5.71;71.01;100845.06;5097204;28;20016;-76
2024/03/25 04:47:40;;;;;;;0.10;0.10;;;;;;;5.67;71.20;100856.47;5096328;28;20031;-79
2024/03/25 04:50:07;;;;;;;0.10;0.10;;;;;;;5.68;71.31;100855.56;5097918;28;20031;-79
2024/03/25 04:52:33;;;;;;;0.93;0.68;;;;;;;5.70;71.21;100858.22;5096676;28;20032;-78
2024/03/25 04:54:59;;;;;;;0.22;0.22;;;;;;;5.70;71.48;100858.22;5099113;28;20564;-78
2024/03/25 04:57:25;;;;;;;0.10;0.10;;;;;;;5.69;71.11;100856.47;5093992;28;20515;-79
2024/03/25 04:59:52;;;;;;;0.10;0.10;;;;;;;5.67;71.33;100856.47;5089019;28;20035;-78
2024/03/25 05:02:18;;;;;;;0.10;0.10;;;;;;;5.65;71.13;100858.19;5082761;28;20056;-77
2024/03/25 05:04:44;;;;;;;0.70;0.70;;;;;;;5.63;71.26;100865.19;5082607;28;20704;-80
2024/03/25 05:07:10;;;;;;;0.10;0.10;;;;;;;5.61;71.23;100859.09;5080216;28;20040;-78
2024/03/25 05:09:36;;;;;;;0.10;0.10;;;;;;;5.60;71.33;100859.97;5089596;28;20428;-77
2024/03/25 05:12:03;;;;;;;0.13;0.13;;;;;;;5.60;71.18;100859.97;5087884;28;20054;-78
2024/03/25 05:14:29;;;;;;;0.20;0.20;;;;;;;5.61;71.18;100866.97;5075894;28;20528;-79
2024/03/25 05:16:56;;;;;;;0.43;0.43;;;;;;;5.59;71.21;100864.31;5085652;28;20047;-79
2024/03/25 05:19:23;;;;;;;0.20;0.20;;;;;;;5.58;71.26;100873.09;5090856;28;20046;-79
2024/03/25 05:21:49;;;;;;;0.10;0.10;;;;;;;5.55;71.39;100874.84;5090962;28;20460;-79
2024/03/25 05:24:15;;;;;;;0.10;0.10;;;;;;;5.51;71.45;100866.09;5077060;28;20031;-79
2024/03/25 05:26:41;;;;;;;0.10;0.10;;;;;;;5.47;71.39;100869.56;5094052;28;20066;-76
2024/03/25 05:29:08;;;;;;;0.80;0.80;;;;;;;5.44;71.36;100865.19;5082048;28;20491;-79
2024/03/25 05:31:34;;;;;;;0.20;0.20;;;;;;;5.43;71.47;100868.72;5091812;28;20020;-79
2024/03/25 05:34:02;;;;;;;0.20;0.20;;;;;;;5.42;71.39;100861.69;5090708;28;20036;-79
2024/03/25 05:36:28;;;;;;;0.10;0.10;;;;;;;5.41;71.51;100859.94;5087134;28;20055;-79
2024/03/25 05:38:56;;;;;;;0.15;0.15;;;;;;;5.41;71.26;100859.94;5085324;28;20399;-79
2024/03/25 05:41:23;;;;;;;0.10;0.10;;;;;;;5.42;71.36;100861.69;5085809;28;20629;-79
2024/03/25 05:43:49;;;;;;;0.20;0.20;;;;;;;5.43;71.57;100868.72;5094016;28;20043;-79
2024/03/25 05:46:15;;;;;;;0.20;0.20;;;;;;;5.42;71.36;100860.78;5090222;28;20379;-80
2024/03/25 05:48:41;;;;;;;0.10;0.10;;;;;;;5.42;71.41;100852.91;5093751;28;20501;-79
2024/03/25 05:51:07;;;;;;;0.17;0.17;;;;;;;5.42;71.56;100851.19;5095856;28;20030;-80
2024/03/25 05:53:34;;;;;;;0.20;0.20;;;;;;;5.43;71.17;100846.78;5089621;28;20368;-79
2024/03/25 05:56:00;;;;;;;0.20;0.20;;;;;;;5.42;71.37;100845.03;5092506;28;20382;-78
2024/03/25 05:58:27;;;;;;;0.10;0.10;;;;;;;5.43;71.42;100841.53;5080774;28;20040;-77
2024/03/25 06:00:53;;;;;;;0.10;0.10;;;;;;;5.44;71.18;100838.03;5086170;28;20038;-80
2024/03/25 06:03:20;;;;;;;0.20;0.20;;;;;;;5.44;71.37;100832.78;5093266;28;20438;-79
2024/03/25 06:05:47;;;;;;;0.10;0.10;;;;;;;5.46;71.42;100847.66;5096177;28;20419;-78
2024/03/25 06:08:29;;;;;;;0.17;0.17;;;;;;;5.47;71.52;100843.28;5088708;28;20025;-77
2024/03/25 06:11:00;;;;;;;0.20;0.20;;;;;;;5.49;71.66;100841.53;5081910;28;20039;-79
2024/03/25 06:13:26;;;;;;;0.22;0.22;;;;;;;5.48;71.64;100843.31;5080800;28;20035;-79
2024/03/25 06:15:52;;;;;;;0.20;0.20;;;;;;;5.51;71.68;100839.81;5085159;28;20027;-79
2024/03/25 06:18:18;;;;;;;0.10;0.10;;;;;;;5.53;71.62;100838.03;5078536;28;20094;-79
2024/03/25 06:20:45;;;;;;;0.20;0.20;;;;;;;5.57;71.59;100828.41;5086934;28;20579;-78
2024/03/25 06:23:21;;;;;;;0.20;0.20;;;;;;;5.60;71.83;100828.41;5093188;28;20061;-79
2024/03/25 06:25:47;;;;;;;0.10;0.10;;;;;;;5.62;72.12;100827.53;5085984;28;20531;-79
2024/03/25 06:28:13;;;;;;;0.10;0.10;;;;;;;5.67;72.18;100827.53;5086012;28;20438;-78
2024/03/25 06:36:12;;;;;;;0.20;0.20;;;;;;;5.80;72.09;100836.28;5085347;28;20124;-79
2024/03/25 06:38:38;;;;;;;0.17;0.17;;;;;;;5.83;72.33;100837.16;5093438;28;20720;-78
2024/03/25 06:41:04;;;;;;;0.20;0.20;;;;;;;5.89;72.30;100831.00;5077920;28;20058;-77
2024/03/25 06:43:30;;;;;;;0.10;0.10;;;;;;;5.94;72.27;100823.13;5076062;28;20035;-77
2024/03/25 06:45:56;;;;;;;0.20;0.20;;;;;;;6.00;72.20;100828.41;5095621;28;20027;-78
2024/03/25 06:48:23;;;;;;;0.30;0.30;;;;;;;6.06;72.27;100823.16;5093441;28;20107;-78
2024/03/25 06:51:04;;;;;;;0.10;0.10;;;;;;;6.20;72.59;100819.63;5090580;28;20036;-76
2024/03/25 06:53:30;;;;;;;0.20;0.20;;;;;;;6.18;72.50;100826.63;5092061;28;20099;-78
2024/03/25 06:55:58;;;;;;;0.17;0.17;;;;;;;6.24;72.53;100822.25;5096614;28;20016;-77
2024/03/25 06:58:26;;;;;;;0.20;0.20;;;;;;;6.31;72.32;100825.72;5095247;28;20040;-80
2024/03/25 07:00:53;;;;;;;0.10;0.10;;;;;;;6.36;72.43;100818.69;5091567;28;20070;-80
2024/03/25 07:03:22;;;;;;;0.10;0.10;;;;;;;6.42;72.78;100831.84;5097653;28;20043;-79
2024/03/25 07:05:50;;;;;;;0.10;0.10;;;;;;;6.47;72.55;100835.31;5083534;28;20032;-80
2024/03/25 07:08:16;;;;;;;0.20;0.20;;;;;;;6.52;72.78;100823.88;5085491;28;20036;-80
2024/03/25 07:10:43;;;;;;;0.22;0.22;;;;;;;6.56;73.07;100829.16;5088285;28;20036;-78
2024/03/25 07:13:09;;;;;;;0.20;0.20;;;;;;;6.63;72.81;100822.97;5080219;28;20032;-78
2024/03/25 07:15:35;;;;;;;0.10;0.10;;;;;;;6.68;72.87;100822.97;5073032;28;20024;-77
2024/03/25 07:18:02;;;;;;;0.10;0.10;;;;;;;6.68;73.14;100824.72;5071244;28;20111;-77
2024/03/25 07:20:28;;;;;;;0.10;0.10;;;;;;;6.78;73.29;100827.31;5070359;28;20035;-79
2024/03/25 07:22:55;;;;;;;0.20;0.20;;;;;;;6.87;72.96;100828.16;5075604;28;20035;-78
2024/03/25 07:25:22;;;;;;;0.95;0.95;;;;;;;6.94;72.81;100830.75;5096099;28;20028;-77
2024/03/25 07:27:48;;;;;;;0.20;0.20;;;;;;;7.00;73.27;100823.69;5089268;28;20067;-77
2024/03/25 07:30:15;;;;;;;0.10;0.10;;;;;;;7.06;73.21;100829.78;5085174;28;20035;-77
2024/03/25 07:32:41;;;;;;;0.10;0.10;;;;;;;7.15;72.91;100831.50;5094654;28;20028;-78
2024/03/25 07:35:09;;;;;;;0.10;0.10;;;;;;;7.21;73.67;100827.97;5094922;28;20408;-77
2024/03/25 07:37:35;;;;;;;0.10;0.10;;;;;;;7.30;73.69;100833.16;5092494;28;20508;-77
2024/03/25 07:40:03;;;;;;;0.10;0.10;;;;;;;7.35;73.25;100834.03;5089498;28;20032;-77
2024/03/25 07:42:30;;;;;;;0.10;0.10;;;;;;;7.45;73.31;100826.91;5085872;28;20504;-76
2024/03/25 07:44:56;;;;;;;0.10;0.10;;;;;;;7.54;73.64;100829.47;5092168;28;20074;-77
2024/03/25 07:47:23;;;;;;;1.55;1.45;;;;;;;7.63;73.99;100830.28;5084355;28;20034;-77
2024/03/25 07:49:49;;;;;;;0.10;0.10;;;;;;;7.70;73.79;100832.88;5085079;28;20042;-79
2024/03/25 07:52:15;;;;;;;0.20;0.20;;;;;;;7.79;73.45;100834.56;5090692;28;20028;-79
2024/03/25 07:54:42;;;;;;;0.20;0.20;;;;;;;7.89;74.08;100832.72;5091312;28;20402;-79
2024/03/25 07:57:09;;;;;;;0.13;0.13;;;;;;;7.99;73.44;100834.38;5083080;28;20071;-78
2024/03/25 07:59:35;;;;;;;0.20;0.20;;;;;;;8.07;73.64;100829.91;5086306;28;20036;-79
2024/03/25 08:02:02;;;;;;;0.10;0.10;;;;;;;8.16;74.27;100835.97;5096816;28;20051;-77
2024/03/25 08:04:29;;;;;;;0.20;0.20;;;;;;;8.26;73.48;100842.88;5075008;28;20668;-79
2024/03/25 08:06:55;;;;;;;0.20;0.20;;;;;;;8.33;74.21;100839.31;5074912;28;20413;-79
2024/03/25 08:09:21;;;;;;;0.10;0.10;;;;;;;8.44;73.85;100849.75;5089412;28;20487;-78
2024/03/25 08:11:47;;;;;;;0.40;0.40;;;;;;;8.52;73.92;100850.59;5088685;28;20102;-77
2024/03/25 08:14:13;;;;;;;0.20;0.20;;;;;;;8.61;73.93;100846.06;5079003;28;20089;-75
2024/03/25 08:16:40;;;;;;;0.13;0.13;;;;;;;8.66;74.13;100847.78;5079896;28;20035;-77
2024/03/25 08:19:06;;;;;;;0.10;0.10;;;;;;;8.71;73.91;100845.94;5090167;28;20024;-79
2024/03/25 08:21:32;;;;;;;0.10;0.10;;;;;;;8.74;73.61;100845.91;5091580;28;20024;-78
2024/03/25 08:23:58;;;;;;;0.50;0.50;;;;;;;8.80;73.60;100844.06;5081486;28;20675;-78
2024/03/25 08:26:24;;;;;;;0.30;0.30;;;;;;;8.92;73.18;100833.34;5081039;28;20048;-79
2024/03/25 08:28:50;;;;;;;0.60;0.60;;;;;;;9.02;73.16;100834.09;5100660;28;20032;-78
2024/03/25 08:31:17;;;;;;;0.22;0.22;;;;;;;9.10;72.75;100834.88;5098666;28;20047;-78
2024/03/25 08:33:43;;;;;;;0.45;0.45;;;;;;;9.19;72.68;100836.50;5104812;28;20033;-80
2024/03/25 08:36:09;;;;;;;0.10;0.10;;;;;;;9.25;72.64;100835.56;5092597;28;20070;-78
2024/03/25 08:38:35;;;;;;;0.50;0.50;;;;;;;9.32;72.03;100830.16;5100645;28;20032;-79
2024/03/25 08:41:02;;;;;;;0.10;0.10;;;;;;;9.43;72.02;100823.81;5088462;28;20044;-78
2024/03/25 08:43:28;;;;;;;0.10;0.10;;;;;;;9.52;71.63;100828.94;5106785;28;20012;-79
2024/03/25 08:45:54;;;;;;;0.25;0.25;;;;;;;9.62;71.72;100822.63;5098727;28;20032;-80
2024/03/25 08:48:20;;;;;;;0.10;0.10;;;;;;;9.74;71.61;100818.91;5102497;28;20032;-79
2024/03/25 08:50:47;;;;;;;0.10;0.10;;;;;;;9.84;71.39;100819.63;5103320;28;20047;-79
2024/03/25 08:53:13;;;;;;;0.20;0.20;;;;;;;9.97;71.63;100818.50;5083042;28;20029;-79
2024/03/25 08:55:43;;;;;;;0.30;0.30;;;;;;;10.04;70.75;100817.50;5085683;28;20028;-77
2024/03/25 08:58:09;;;;;;;1.17;0.85;;;;;;;10.15;70.10;100816.44;5098511;28;20047;-79
2024/03/25 09:00:35;;;;;;;0.73;0.73;;;;;;;10.20;69.11;100818.09;5089320;28;20086;-78
2024/03/25 09:03:04;;;;;;;0.10;0.10;;;;;;;10.24;68.38;100808.28;5089157;28;20029;-77
2024/03/25 09:05:30;;;;;;;3.65;1.67;;;;;;;10.24;67.21;100813.59;5098712;28;20016;-79
2024/03/25 09:07:58;;;;;;;0.82;0.82;;;;;;;10.38;67.86;100809.84;5084365;28;20024;-80
2024/03/25 09:13:11;;;;;;;1.58;1.48;;;;;;;10.54;67.22;100800.66;5100503;28;20350;-79
2024/03/25 09:15:37;;;;;;;0.20;0.20;;;;;;;10.56;65.11;100804.19;5101151;28;20353;-76
2024/03/25 09:18:04;;;;;;;0.10;0.10;;;;;;;10.71;65.46;100796.81;5098577;28;20054;-77
2024/03/25 09:20:30;;;;;;;0.20;0.20;;;;;;;10.87;66.80;100803.53;5101451;28;20570;-76
2024/03/25 09:22:56;;;;;;;0.57;0.57;;;;;;;11.01;67.31;100795.25;5099432;28;20047;-79
2024/03/25 09:25:24;;;;;;;0.65;0.65;;;;;;;11.12;66.52;100795.03;5088105;28;20386;-79
2024/03/25 09:27:50;;;;;;;0.68;0.68;;;;;;;11.29;66.73;100786.66;5098179;28;20483;-79
2024/03/25 09:30:19;;;;;;;0.30;0.30;;;;;;;11.39;65.60;100784.66;5098185;28;20055;-80
2024/03/25 09:32:45;;;;;;;0.20;0.20;;;;;;;11.46;64.86;100787.16;5093304;28;20437;-85
2024/03/25 09:35:12;;;;;;;0.10;0.10;;;;;;;11.61;65.32;100775.28;5100695;28;20020;-80
2024/03/25 09:37:39;;;;;;;0.52;0.52;;;;;;;11.77;64.60;100766.91;5088795;28;20106;-81
2024/03/25 09:40:06;;;;;;;0.52;0.52;;;;;;;11.97;64.47;100759.31;5101278;28;20564;-79
2024/03/25 09:42:48;;;;;;;0.20;0.20;;;;;;;12.23;64.15;100757.72;5100229;28;20036;-80
2024/03/25 09:45:18;;;;;;;0.20;0.20;;;;;;;12.22;62.17;100761.28;5098695;28;20023;-81
2024/03/25 09:47:47;;;;;;;0.10;0.10;;;;;;;12.39;61.82;100758.16;5086731;28;20032;-81
2024/03/25 09:50:19;;;;;;;0.95;0.95;;;;;;;12.53;63.98;100763.06;5093925;28;20028;-80
2024/03/25 09:52:46;;;;;;;0.30;0.30;;;;;;;12.56;62.63;100757.66;5085059;28;20032;-84
2024/03/25 09:55:13;;;;;;;1.00;1.00;;;;;;;12.56;62.82;100754.13;5101614;28;20046;-82
2024/03/25 09:57:41;;;;;;;0.20;0.20;;;;;;;12.67;62.90;100748.50;5091916;28;20499;-82
2024/03/25 10:00:10;;;;;;;0.10;0.10;;;;;;;12.82;62.99;100749.81;5100680;28;20085;-84
2024/03/25 10:02:38;;;;;;;2.05;1.90;;;;;;;12.96;62.05;100747.59;5100475;28;20028;-80
2024/03/25 10:05:06;;;;;;;0.10;0.10;;;;;;;13.05;60.72;100741.13;5090544;28;20024;-81
2024/03/25 10:07:34;;;;;;;0.10;0.10;;;;;;;13.14;60.58;100740.81;5094370;28;20025;-80
2024/03/25 10:10:08;;;;;;;1.27;1.27;;;;;;;13.23;61.39;100743.19;5093359;28;20036;-85
2024/03/25 10:12:36;;;;;;;0.17;0.17;;;;;;;13.26;60.81;100743.06;5090438;28;20458;-79
2024/03/25 10:15:04;;;;;;;0.30;0.30;;;;;;;13.19;57.69;100738.88;5082547;28;20369;-82
2024/03/25 10:17:32;;;;;;;0.47;0.47;;;;;;;13.26;60.03;100739.56;5078777;28;20516;-81
2024/03/25 10:19:58;;;;;;;0.32;0.32;;;;;;;13.32;60.10;100738.47;5079632;28;20036;-84
2024/03/25 10:22:24;;;;;;;0.30;0.30;;;;;;;13.34;57.66;100729.50;5080510;28;20039;-80
2024/03/25 10:24:50;;;;;;;0.10;0.10;;;;;;;13.46;59.76;100728.28;5080168;28;20047;-81
2024/03/25 10:27:20;;;;;;;0.73;0.73;;;;;;;13.51;59.92;100728.97;5096643;28;20073;-81
2024/03/25 10:29:48;;;;;;;0.30;0.30;;;;;;;13.44;58.15;100722.13;5099516;28;20063;-80
2024/03/25 10:32:14;;;;;;;0.20;0.20;;;;;;;13.54;60.39;100720.03;5089633;28;20140;-80
2024/03/25 10:34:41;;;;;;;0.10;0.10;;;;;;;13.46;57.05;100722.06;5084176;28;20025;-84
2024/03/25 10:37:10;;;;;;;1.17;1.17;;;;;;;13.49;56.46;100720.16;5083531;28;20570;-83
2024/03/25 10:39:46;;;;;;;0.90;0.85;;;;;;;13.51;55.97;100718.34;5091794;28;20043;-80
2024/03/25 10:42:17;;;;;;;0.10;0.10;;;;;;;13.58;58.76;100718.97;5100974;28;20499;-79
2024/03/25 10:44:44;;;;;;;0.20;0.20;;;;;;;13.57;58.27;100704.81;5096633;28;20075;-80
2024/03/25 10:47:17;;;;;;;0.13;0.13;;;;;;;13.58;56.36;100708.34;5085633;28;20495;-79
2024/03/25 10:49:55;;;;;;;0.20;0.20;;;;;;;13.69;56.17;100702.66;5093954;28;20028;-80
2024/03/25 10:52:23;;;;;;;0.73;0.73;;;;;;;13.74;55.65;100698.03;5093840;28;20514;-80
2024/03/25 10:54:50;;;;;;;0.85;0.85;;;;;;;13.83;58.02;100697.72;5096186;28;20031;-80
2024/03/25 10:57:18;;;;;;;0.15;0.15;;;;;;;13.93;57.08;100694.69;5096109;28;20708;-81
2024/03/25 10:59:46;;;;;;;0.10;0.10;;;;;;;14.07;57.03;100695.06;5085092;28;20086;-82
2024/03/25 11:02:12;;;;;;;0.60;0.60;;;;;;;14.12;55.07;100689.56;5078636;28;20059;-78
2024/03/25 11:04:40;;;;;;;0.13;0.13;;;;;;;14.18;53.94;100682.22;5081772;28;20516;-80
2024/03/25 11:07:15;;;;;;;0.30;0.30;;;;;;;14.29;53.95;100688.94;5083322;28;20028;-80
2024/03/25 11:09:42;;;;;;;0.47;0.47;;;;;;;14.21;51.26;100690.09;5089111;28;20027;-80
2024/03/25 11:12:12;;;;;;;0.15;0.15;;;;;;;14.34;52.57;100684.28;5083861;28;20071;-80
2024/03/25 11:14:39;;;;;;;0.10;0.10;;;;;;;14.27;50.43;100680.13;5091695;28;20065;-80
2024/03/25 11:17:20;;;;;;;0.10;0.10;;;;;;;14.34;50.79;100681.63;5089975;28;20435;-79
2024/03/25 11:19:47;;;;;;;0.55;0.55;;;;;;;14.27;50.42;100680.13;5095751;28;20027;-81
2024/03/25 11:22:14;;;;;;;0.30;0.30;;;;;;;14.30;50.94;100674.69;5077212;28;20033;-81
2024/03/25 11:24:44;;;;;;;1.00;0.98;;;;;;;14.38;51.88;100677.91;5096755;28;20024;-80
2024/03/25 11:27:10;;;;;;;12.98;1.90;;;;;;;14.39;50.01;100659.22;5087694;28;20071;-81
2024/03/25 11:29:36;;;;;;;0.10;0.10;;;;;;;14.48;49.74;100662.41;5091062;28;20073;-81
2024/03/25 11:32:05;;;;;;;0.10;0.10;;;;;;;14.65;50.40;100651.13;5084561;28;20024;-80
2024/03/25 11:34:31;;;;;;;2.20;1.20;;;;;;;14.74;50.91;100650.75;5088138;28;20028;-80
2024/03/25 11:36:58;;;;;;;0.68;0.68;;;;;;;14.83;51.56;100634.38;5095877;28;20036;-80
2024/03/25 11:39:26;;;;;;;0.10;0.10;;;;;;;14.86;51.22;100631.56;5080776;28;20032;-79